sensor_id;sensor_type;location;lat;lon;timestamp;P1;durP1;ratioP1;P2;durP2;ratioP2
26303;SDS011;70693;48.680;8.890;2023-12-28T00:02:06;4.18;;;2.85;;
26303;SDS011;70693;48.680;8.890;2023-12-28T00:04:31;5.13;;;3.08;;
26303;SDS011;70693;48.680;8.890;2023-12-28T00:06:59;4.30;;;2.80;;
26303;SDS011;70693;48.680;8.890;2023-12-28T00:09:25;3.72;;;2.50;;
26303;SDS011;70693;48.680;8.890;2023-12-28T00:11:51;4.05;;;2.47;;
26303;SDS011;70693;48.680;8.890;2023-12-28T00:14:16;4.88;;;2.80;;
26303;SDS011;70693;48.680;8.890;2023-12-28T00:16:42;5.18;;;3.28;;
26303;SDS011;70693;48.680;8.890;2023-12-28T00:19:08;4.55;;;2.60;;
26303;SDS011;70693;48.680;8.890;2023-12-28T00:21:33;5.57;;;3.20;;
26303;SDS011;70693;48.680;8.890;2023-12-28T00:23:59;5.72;;;3.17;;
26303;SDS011;70693;48.680;8.890;2023-12-28T00:26:24;4.57;;;3.22;;
26303;SDS011;70693;48.680;8.890;2023-12-28T00:28:50;6.30;;;3.53;;
26303;SDS011;70693;48.680;8.890;2023-12-28T00:31:16;5.95;;;3.40;;
26303;SDS011;70693;48.680;8.890;2023-12-28T00:33:41;4.97;;;3.10;;
26303;SDS011;70693;48.680;8.890;2023-12-28T00:36:07;5.40;;;3.45;;
26303;SDS011;70693;48.680;8.890;2023-12-28T00:38:33;3.80;;;2.97;;
26303;SDS011;70693;48.680;8.890;2023-12-28T00:40:58;4.53;;;2.85;;
26303;SDS011;70693;48.680;8.890;2023-12-28T00:43:24;5.00;;;2.92;;
26303;SDS011;70693;48.680;8.890;2023-12-28T00:45:49;5.03;;;3.05;;
26303;SDS011;70693;48.680;8.890;2023-12-28T00:48:15;5.40;;;2.80;;
26303;SDS011;70693;48.680;8.890;2023-12-28T00:50:41;4.05;;;2.70;;
26303;SDS011;70693;48.680;8.890;2023-12-28T00:53:06;4.57;;;2.70;;
26303;SDS011;70693;48.680;8.890;2023-12-28T00:55:32;4.53;;;3.05;;
26303;SDS011;70693;48.680;8.890;2023-12-28T00:57:58;4.68;;;2.83;;
26303;SDS011;70693;48.680;8.890;2023-12-28T01:00:23;7.05;;;3.40;;
26303;SDS011;70693;48.680;8.890;2023-12-28T01:02:49;3.85;;;2.60;;
26303;SDS011;70693;48.680;8.890;2023-12-28T01:05:15;4.70;;;2.95;;
26303;SDS011;70693;48.680;8.890;2023-12-28T01:07:41;4.45;;;2.90;;
26303;SDS011;70693;48.680;8.890;2023-12-28T01:10:07;3.72;;;2.97;;
26303;SDS011;70693;48.680;8.890;2023-12-28T01:12:33;4.32;;;2.50;;
26303;SDS011;70693;48.680;8.890;2023-12-28T01:14:58;4.22;;;2.90;;
26303;SDS011;70693;48.680;8.890;2023-12-28T01:17:24;4.88;;;2.72;;
26303;SDS011;70693;48.680;8.890;2023-12-28T01:19:50;3.28;;;2.70;;
26303;SDS011;70693;48.680;8.890;2023-12-28T01:22:15;6.10;;;3.00;;
26303;SDS011;70693;48.680;8.890;2023-12-28T01:24:41;3.78;;;2.63;;
26303;SDS011;70693;48.680;8.890;2023-12-28T01:27:07;3.83;;;2.58;;
26303;SDS011;70693;48.680;8.890;2023-12-28T01:29:32;3.80;;;2.50;;
26303;SDS011;70693;48.680;8.890;2023-12-28T01:31:59;3.92;;;2.50;;
26303;SDS011;70693;48.680;8.890;2023-12-28T01:34:25;4.00;;;2.80;;
26303;SDS011;70693;48.680;8.890;2023-12-28T01:36:50;3.92;;;2.83;;
26303;SDS011;70693;48.680;8.890;2023-12-28T01:39:16;4.05;;;2.58;;
26303;SDS011;70693;48.680;8.890;2023-12-28T01:41:43;4.00;;;2.60;;
26303;SDS011;70693;48.680;8.890;2023-12-28T01:44:10;3.40;;;2.40;;
26303;SDS011;70693;48.680;8.890;2023-12-28T01:46:36;3.20;;;2.10;;
26303;SDS011;70693;48.680;8.890;2023-12-28T01:49:01;2.78;;;2.30;;
26303;SDS011;70693;48.680;8.890;2023-12-28T01:51:28;3.85;;;2.70;;
26303;SDS011;70693;48.680;8.890;2023-12-28T01:53:54;3.30;;;2.40;;
26303;SDS011;70693;48.680;8.890;2023-12-28T01:56:20;4.03;;;2.53;;
26303;SDS011;70693;48.680;8.890;2023-12-28T01:58:47;3.70;;;2.40;;
26303;SDS011;70693;48.680;8.890;2023-12-28T02:01:15;2.10;;;1.90;;
26303;SDS011;70693;48.680;8.890;2023-12-28T02:03:42;3.78;;;2.40;;
26303;SDS011;70693;48.680;8.890;2023-12-28T02:06:08;3.65;;;2.08;;
26303;SDS011;70693;48.680;8.890;2023-12-28T02:08:34;4.47;;;2.20;;
26303;SDS011;70693;48.680;8.890;2023-12-28T02:10:59;4.15;;;2.40;;
26303;SDS011;70693;48.680;8.890;2023-12-28T02:13:25;4.05;;;2.30;;
26303;SDS011;70693;48.680;8.890;2023-12-28T02:15:52;5.35;;;2.22;;
26303;SDS011;70693;48.680;8.890;2023-12-28T02:18:21;3.42;;;2.20;;
26303;SDS011;70693;48.680;8.890;2023-12-28T02:20:51;3.05;;;2.30;;
26303;SDS011;70693;48.680;8.890;2023-12-28T02:23:18;3.35;;;2.30;;
26303;SDS011;70693;48.680;8.890;2023-12-28T02:25:43;3.15;;;2.10;;
26303;SDS011;70693;48.680;8.890;2023-12-28T02:28:09;2.65;;;1.90;;
26303;SDS011;70693;48.680;8.890;2023-12-28T02:30:34;3.08;;;2.05;;
26303;SDS011;70693;48.680;8.890;2023-12-28T02:33:15;3.38;;;1.92;;
26303;SDS011;70693;48.680;8.890;2023-12-28T02:35:55;3.15;;;2.00;;
26303;SDS011;70693;48.680;8.890;2023-12-28T02:38:24;3.20;;;2.00;;
26303;SDS011;70693;48.680;8.890;2023-12-28T02:40:52;3.38;;;2.10;;
26303;SDS011;70693;48.680;8.890;2023-12-28T02:43:18;3.33;;;1.92;;
26303;SDS011;70693;48.680;8.890;2023-12-28T02:45:44;2.80;;;1.90;;
26303;SDS011;70693;48.680;8.890;2023-12-28T02:48:10;2.67;;;2.00;;
26303;SDS011;70693;48.680;8.890;2023-12-28T02:50:36;2.95;;;2.05;;
26303;SDS011;70693;48.680;8.890;2023-12-28T02:53:02;2.47;;;1.70;;
26303;SDS011;70693;48.680;8.890;2023-12-28T02:55:28;3.08;;;1.90;;
26303;SDS011;70693;48.680;8.890;2023-12-28T02:57:55;3.20;;;1.95;;
26303;SDS011;70693;48.680;8.890;2023-12-28T03:00:24;3.65;;;1.88;;
26303;SDS011;70693;48.680;8.890;2023-12-28T03:02:50;3.45;;;2.10;;
26303;SDS011;70693;48.680;8.890;2023-12-28T03:05:15;2.25;;;1.60;;
26303;SDS011;70693;48.680;8.890;2023-12-28T03:07:41;2.92;;;1.90;;
26303;SDS011;70693;48.680;8.890;2023-12-28T03:10:08;4.22;;;1.92;;
26303;SDS011;70693;48.680;8.890;2023-12-28T03:12:34;2.17;;;1.70;;
26303;SDS011;70693;48.680;8.890;2023-12-28T03:15:00;5.80;;;1.83;;
26303;SDS011;70693;48.680;8.890;2023-12-28T03:17:26;2.33;;;1.88;;
26303;SDS011;70693;48.680;8.890;2023-12-28T03:19:51;2.22;;;1.67;;
26303;SDS011;70693;48.680;8.890;2023-12-28T03:22:17;2.35;;;1.90;;
26303;SDS011;70693;48.680;8.890;2023-12-28T03:24:43;2.28;;;1.75;;
26303;SDS011;70693;48.680;8.890;2023-12-28T03:27:09;2.45;;;1.80;;
26303;SDS011;70693;48.680;8.890;2023-12-28T03:29:34;2.85;;;1.80;;
26303;SDS011;70693;48.680;8.890;2023-12-28T03:32:00;2.03;;;1.70;;
26303;SDS011;70693;48.680;8.890;2023-12-28T03:34:26;3.40;;;1.85;;
26303;SDS011;70693;48.680;8.890;2023-12-28T03:36:54;2.30;;;1.70;;
26303;SDS011;70693;48.680;8.890;2023-12-28T03:39:20;2.33;;;1.55;;
26303;SDS011;70693;48.680;8.890;2023-12-28T03:41:45;2.42;;;1.70;;
26303;SDS011;70693;48.680;8.890;2023-12-28T03:44:12;2.28;;;1.80;;
26303;SDS011;70693;48.680;8.890;2023-12-28T03:46:38;2.80;;;1.67;;
26303;SDS011;70693;48.680;8.890;2023-12-28T03:49:03;2.05;;;1.50;;
26303;SDS011;70693;48.680;8.890;2023-12-28T03:51:29;2.70;;;1.83;;
26303;SDS011;70693;48.680;8.890;2023-12-28T03:53:55;2.28;;;1.65;;
26303;SDS011;70693;48.680;8.890;2023-12-28T03:56:24;3.00;;;1.83;;
26303;SDS011;70693;48.680;8.890;2023-12-28T03:58:51;2.83;;;1.60;;
26303;SDS011;70693;48.680;8.890;2023-12-28T04:01:21;2.90;;;1.50;;
26303;SDS011;70693;48.680;8.890;2023-12-28T04:03:47;2.85;;;1.75;;
26303;SDS011;70693;48.680;8.890;2023-12-28T04:06:13;2.65;;;1.80;;
26303;SDS011;70693;48.680;8.890;2023-12-28T04:08:40;2.53;;;1.65;;
26303;SDS011;70693;48.680;8.890;2023-12-28T04:11:06;2.30;;;1.70;;
26303;SDS011;70693;48.680;8.890;2023-12-28T04:13:32;2.47;;;1.90;;
26303;SDS011;70693;48.680;8.890;2023-12-28T04:15:57;2.13;;;1.70;;
26303;SDS011;70693;48.680;8.890;2023-12-28T04:18:23;2.67;;;1.65;;
26303;SDS011;70693;48.680;8.890;2023-12-28T04:20:49;2.70;;;1.55;;
26303;SDS011;70693;48.680;8.890;2023-12-28T04:23:15;2.67;;;1.60;;
26303;SDS011;70693;48.680;8.890;2023-12-28T04:25:40;2.47;;;1.63;;
26303;SDS011;70693;48.680;8.890;2023-12-28T04:28:06;2.70;;;1.45;;
26303;SDS011;70693;48.680;8.890;2023-12-28T04:30:32;3.35;;;1.90;;
26303;SDS011;70693;48.680;8.890;2023-12-28T04:32:58;2.33;;;1.35;;
26303;SDS011;70693;48.680;8.890;2023-12-28T04:35:24;2.85;;;1.48;;
26303;SDS011;70693;48.680;8.890;2023-12-28T04:37:50;2.35;;;1.58;;
26303;SDS011;70693;48.680;8.890;2023-12-28T04:40:15;2.13;;;1.40;;
26303;SDS011;70693;48.680;8.890;2023-12-28T04:42:42;2.22;;;1.40;;
26303;SDS011;70693;48.680;8.890;2023-12-28T04:45:08;2.10;;;1.60;;
26303;SDS011;70693;48.680;8.890;2023-12-28T04:47:35;1.60;;;1.20;;
26303;SDS011;70693;48.680;8.890;2023-12-28T04:50:01;2.38;;;1.30;;
26303;SDS011;70693;48.680;8.890;2023-12-28T04:52:28;1.77;;;1.40;;
26303;SDS011;70693;48.680;8.890;2023-12-28T04:54:54;2.30;;;1.50;;
26303;SDS011;70693;48.680;8.890;2023-12-28T04:57:19;6.18;;;1.50;;
26303;SDS011;70693;48.680;8.890;2023-12-28T04:59:45;2.42;;;1.23;;
26303;SDS011;70693;48.680;8.890;2023-12-28T05:02:11;1.50;;;1.17;;
26303;SDS011;70693;48.680;8.890;2023-12-28T05:04:37;2.80;;;1.70;;
26303;SDS011;70693;48.680;8.890;2023-12-28T05:07:05;1.92;;;1.40;;
26303;SDS011;70693;48.680;8.890;2023-12-28T05:09:31;2.17;;;1.48;;
26303;SDS011;70693;48.680;8.890;2023-12-28T05:11:57;2.00;;;1.38;;
26303;SDS011;70693;48.680;8.890;2023-12-28T05:14:22;1.90;;;1.45;;
26303;SDS011;70693;48.680;8.890;2023-12-28T05:16:48;1.55;;;1.27;;
26303;SDS011;70693;48.680;8.890;2023-12-28T05:19:14;2.42;;;1.40;;
26303;SDS011;70693;48.680;8.890;2023-12-28T05:21:40;1.52;;;1.30;;
26303;SDS011;70693;48.680;8.890;2023-12-28T05:24:05;1.88;;;1.35;;
26303;SDS011;70693;48.680;8.890;2023-12-28T05:26:31;3.03;;;1.27;;
26303;SDS011;70693;48.680;8.890;2023-12-28T05:28:57;2.03;;;1.17;;
26303;SDS011;70693;48.680;8.890;2023-12-28T05:31:22;2.08;;;1.20;;
26303;SDS011;70693;48.680;8.890;2023-12-28T05:33:48;1.90;;;1.17;;
26303;SDS011;70693;48.680;8.890;2023-12-28T05:36:13;1.52;;;1.38;;
26303;SDS011;70693;48.680;8.890;2023-12-28T05:38:39;2.58;;;1.20;;
26303;SDS011;70693;48.680;8.890;2023-12-28T05:41:04;1.55;;;1.15;;
26303;SDS011;70693;48.680;8.890;2023-12-28T05:43:30;1.77;;;1.20;;
26303;SDS011;70693;48.680;8.890;2023-12-28T05:45:56;1.77;;;1.30;;
26303;SDS011;70693;48.680;8.890;2023-12-28T05:48:21;2.75;;;1.40;;
26303;SDS011;70693;48.680;8.890;2023-12-28T05:50:47;2.00;;;1.23;;
26303;SDS011;70693;48.680;8.890;2023-12-28T05:53:13;1.80;;;1.30;;
26303;SDS011;70693;48.680;8.890;2023-12-28T05:55:39;1.90;;;1.20;;
26303;SDS011;70693;48.680;8.890;2023-12-28T05:58:08;1.80;;;1.20;;
26303;SDS011;70693;48.680;8.890;2023-12-28T06:00:34;2.55;;;1.25;;
26303;SDS011;70693;48.680;8.890;2023-12-28T06:03:01;2.33;;;1.17;;
26303;SDS011;70693;48.680;8.890;2023-12-28T06:05:27;1.75;;;1.25;;
26303;SDS011;70693;48.680;8.890;2023-12-28T06:07:53;1.58;;;1.10;;
26303;SDS011;70693;48.680;8.890;2023-12-28T06:10:19;1.83;;;1.20;;
26303;SDS011;70693;48.680;8.890;2023-12-28T06:12:45;1.77;;;1.42;;
26303;SDS011;70693;48.680;8.890;2023-12-28T06:15:10;2.58;;;1.30;;
26303;SDS011;70693;48.680;8.890;2023-12-28T06:17:36;2.03;;;1.30;;
26303;SDS011;70693;48.680;8.890;2023-12-28T06:20:02;1.75;;;1.08;;
26303;SDS011;70693;48.680;8.890;2023-12-28T06:22:28;1.63;;;1.00;;
26303;SDS011;70693;48.680;8.890;2023-12-28T06:24:54;1.55;;;1.25;;
26303;SDS011;70693;48.680;8.890;2023-12-28T06:27:20;1.73;;;1.00;;
26303;SDS011;70693;48.680;8.890;2023-12-28T06:29:46;1.80;;;1.38;;
26303;SDS011;70693;48.680;8.890;2023-12-28T06:32:12;1.50;;;1.10;;
26303;SDS011;70693;48.680;8.890;2023-12-28T06:34:37;1.70;;;0.90;;
26303;SDS011;70693;48.680;8.890;2023-12-28T06:37:04;2.13;;;1.20;;
26303;SDS011;70693;48.680;8.890;2023-12-28T06:39:29;1.70;;;1.00;;
26303;SDS011;70693;48.680;8.890;2023-12-28T06:41:55;2.65;;;1.10;;
26303;SDS011;70693;48.680;8.890;2023-12-28T06:44:21;2.15;;;1.23;;
26303;SDS011;70693;48.680;8.890;2023-12-28T06:46:46;2.53;;;1.10;;
26303;SDS011;70693;48.680;8.890;2023-12-28T06:49:12;3.05;;;1.30;;
26303;SDS011;70693;48.680;8.890;2023-12-28T06:51:37;2.00;;;1.23;;
26303;SDS011;70693;48.680;8.890;2023-12-28T06:54:03;1.65;;;0.98;;
26303;SDS011;70693;48.680;8.890;2023-12-28T06:56:29;1.48;;;1.00;;
26303;SDS011;70693;48.680;8.890;2023-12-28T06:58:54;1.20;;;0.98;;
26303;SDS011;70693;48.680;8.890;2023-12-28T07:01:20;2.08;;;1.10;;
26303;SDS011;70693;48.680;8.890;2023-12-28T07:03:45;1.63;;;0.98;;
26303;SDS011;70693;48.680;8.890;2023-12-28T07:06:11;1.73;;;1.20;;
26303;SDS011;70693;48.680;8.890;2023-12-28T07:08:38;2.42;;;1.17;;
26303;SDS011;70693;48.680;8.890;2023-12-28T07:11:04;2.08;;;1.00;;
26303;SDS011;70693;48.680;8.890;2023-12-28T07:13:30;1.50;;;1.23;;
26303;SDS011;70693;48.680;8.890;2023-12-28T07:15:55;1.15;;;1.05;;
26303;SDS011;70693;48.680;8.890;2023-12-28T07:18:21;2.58;;;1.35;;
26303;SDS011;70693;48.680;8.890;2023-12-28T07:20:47;2.10;;;1.27;;
26303;SDS011;70693;48.680;8.890;2023-12-28T07:23:12;1.63;;;1.20;;
26303;SDS011;70693;48.680;8.890;2023-12-28T07:25:38;1.65;;;0.93;;
26303;SDS011;70693;48.680;8.890;2023-12-28T07:28:04;1.35;;;1.00;;
26303;SDS011;70693;48.680;8.890;2023-12-28T07:30:29;1.58;;;1.15;;
26303;SDS011;70693;48.680;8.890;2023-12-28T07:32:55;1.27;;;0.90;;
26303;SDS011;70693;48.680;8.890;2023-12-28T07:35:21;2.13;;;1.23;;
26303;SDS011;70693;48.680;8.890;2023-12-28T07:37:46;1.90;;;1.15;;
26303;SDS011;70693;48.680;8.890;2023-12-28T07:40:12;2.00;;;1.10;;
26303;SDS011;70693;48.680;8.890;2023-12-28T07:42:38;1.42;;;0.90;;
26303;SDS011;70693;48.680;8.890;2023-12-28T07:45:04;2.25;;;1.10;;
26303;SDS011;70693;48.680;8.890;2023-12-28T07:47:30;2.00;;;1.00;;
26303;SDS011;70693;48.680;8.890;2023-12-28T07:49:55;2.20;;;1.27;;
26303;SDS011;70693;48.680;8.890;2023-12-28T07:52:21;3.10;;;1.52;;
26303;SDS011;70693;48.680;8.890;2023-12-28T07:54:47;2.03;;;1.00;;
26303;SDS011;70693;48.680;8.890;2023-12-28T07:57:13;1.23;;;0.88;;
26303;SDS011;70693;48.680;8.890;2023-12-28T07:59:38;1.88;;;1.02;;
26303;SDS011;70693;48.680;8.890;2023-12-28T08:02:04;1.98;;;1.13;;
26303;SDS011;70693;48.680;8.890;2023-12-28T08:04:30;2.03;;;1.10;;
26303;SDS011;70693;48.680;8.890;2023-12-28T08:06:57;1.70;;;1.13;;
26303;SDS011;70693;48.680;8.890;2023-12-28T08:09:23;3.33;;;1.38;;
26303;SDS011;70693;48.680;8.890;2023-12-28T08:11:48;1.92;;;1.00;;
26303;SDS011;70693;48.680;8.890;2023-12-28T08:14:14;2.83;;;1.17;;
26303;SDS011;70693;48.680;8.890;2023-12-28T08:16:40;1.98;;;1.25;;
26303;SDS011;70693;48.680;8.890;2023-12-28T08:19:05;1.70;;;1.25;;
26303;SDS011;70693;48.680;8.890;2023-12-28T08:21:31;2.13;;;1.30;;
26303;SDS011;70693;48.680;8.890;2023-12-28T08:23:57;2.63;;;1.15;;
26303;SDS011;70693;48.680;8.890;2023-12-28T08:26:22;2.45;;;1.20;;
26303;SDS011;70693;48.680;8.890;2023-12-28T08:28:48;1.50;;;0.88;;
26303;SDS011;70693;48.680;8.890;2023-12-28T08:31:14;2.50;;;1.38;;
26303;SDS011;70693;48.680;8.890;2023-12-28T08:33:40;2.70;;;1.38;;
26303;SDS011;70693;48.680;8.890;2023-12-28T08:36:09;2.05;;;1.13;;
26303;SDS011;70693;48.680;8.890;2023-12-28T08:38:36;2.33;;;1.17;;
26303;SDS011;70693;48.680;8.890;2023-12-28T08:41:02;1.83;;;1.20;;
26303;SDS011;70693;48.680;8.890;2023-12-28T08:43:33;2.08;;;1.10;;
26303;SDS011;70693;48.680;8.890;2023-12-28T08:45:59;1.90;;;1.23;;
26303;SDS011;70693;48.680;8.890;2023-12-28T08:48:24;1.75;;;1.20;;
26303;SDS011;70693;48.680;8.890;2023-12-28T08:50:50;2.30;;;1.10;;
26303;SDS011;70693;48.680;8.890;2023-12-28T08:53:16;1.52;;;1.10;;
26303;SDS011;70693;48.680;8.890;2023-12-28T08:55:41;2.25;;;1.20;;
26303;SDS011;70693;48.680;8.890;2023-12-28T08:58:07;2.70;;;1.20;;
26303;SDS011;70693;48.680;8.890;2023-12-28T09:00:33;3.38;;;1.17;;
26303;SDS011;70693;48.680;8.890;2023-12-28T09:02:58;3.03;;;1.30;;
26303;SDS011;70693;48.680;8.890;2023-12-28T09:05:24;1.77;;;1.13;;
26303;SDS011;70693;48.680;8.890;2023-12-28T09:07:50;1.90;;;1.10;;
26303;SDS011;70693;48.680;8.890;2023-12-28T09:10:15;1.77;;;1.02;;
26303;SDS011;70693;48.680;8.890;2023-12-28T09:12:41;1.73;;;1.00;;
26303;SDS011;70693;48.680;8.890;2023-12-28T09:15:07;2.03;;;1.10;;
26303;SDS011;70693;48.680;8.890;2023-12-28T09:17:33;2.35;;;1.15;;
26303;SDS011;70693;48.680;8.890;2023-12-28T09:19:59;2.80;;;1.38;;
26303;SDS011;70693;48.680;8.890;2023-12-28T09:22:26;2.33;;;0.90;;
26303;SDS011;70693;48.680;8.890;2023-12-28T09:24:52;3.13;;;1.38;;
26303;SDS011;70693;48.680;8.890;2023-12-28T09:27:18;1.85;;;1.10;;
26303;SDS011;70693;48.680;8.890;2023-12-28T09:29:43;1.88;;;1.13;;
26303;SDS011;70693;48.680;8.890;2023-12-28T09:32:09;2.28;;;1.25;;
26303;SDS011;70693;48.680;8.890;2023-12-28T09:34:35;1.52;;;1.00;;
26303;SDS011;70693;48.680;8.890;2023-12-28T09:37:00;2.00;;;1.20;;
26303;SDS011;70693;48.680;8.890;2023-12-28T09:39:26;1.15;;;1.00;;
26303;SDS011;70693;48.680;8.890;2023-12-28T09:41:55;2.08;;;1.23;;
26303;SDS011;70693;48.680;8.890;2023-12-28T09:46:53;2.83;;;1.30;;
26303;SDS011;70693;48.680;8.890;2023-12-28T09:49:21;2.25;;;1.55;;
26303;SDS011;70693;48.680;8.890;2023-12-28T09:51:47;2.58;;;1.20;;
26303;SDS011;70693;48.680;8.890;2023-12-28T09:54:12;2.20;;;1.30;;
26303;SDS011;70693;48.680;8.890;2023-12-28T09:56:38;3.00;;;1.67;;
26303;SDS011;70693;48.680;8.890;2023-12-28T09:59:05;3.35;;;1.60;;
26303;SDS011;70693;48.680;8.890;2023-12-28T10:01:35;2.58;;;1.60;;
26303;SDS011;70693;48.680;8.890;2023-12-28T10:04:01;5.80;;;1.55;;
26303;SDS011;70693;48.680;8.890;2023-12-28T10:06:31;2.15;;;1.50;;
26303;SDS011;70693;48.680;8.890;2023-12-28T10:08:57;2.28;;;1.35;;
26303;SDS011;70693;48.680;8.890;2023-12-28T10:11:22;2.10;;;1.30;;
26303;SDS011;70693;48.680;8.890;2023-12-28T10:13:50;3.88;;;1.60;;
26303;SDS011;70693;48.680;8.890;2023-12-28T10:16:16;3.10;;;1.17;;
26303;SDS011;70693;48.680;8.890;2023-12-28T10:18:42;2.28;;;1.30;;
26303;SDS011;70693;48.680;8.890;2023-12-28T10:21:08;1.92;;;1.15;;
26303;SDS011;70693;48.680;8.890;2023-12-28T10:23:34;2.40;;;1.50;;
26303;SDS011;70693;48.680;8.890;2023-12-28T10:26:01;3.90;;;1.13;;
26303;SDS011;70693;48.680;8.890;2023-12-28T10:28:30;2.53;;;1.20;;
26303;SDS011;70693;48.680;8.890;2023-12-28T10:30:57;1.70;;;1.30;;
26303;SDS011;70693;48.680;8.890;2023-12-28T10:33:23;2.10;;;1.50;;
26303;SDS011;70693;48.680;8.890;2023-12-28T10:35:52;2.20;;;1.15;;
26303;SDS011;70693;48.680;8.890;2023-12-28T10:38:20;2.33;;;1.08;;
26303;SDS011;70693;48.680;8.890;2023-12-28T10:40:47;2.55;;;1.38;;
26303;SDS011;70693;48.680;8.890;2023-12-28T10:43:15;2.75;;;1.13;;
26303;SDS011;70693;48.680;8.890;2023-12-28T10:45:42;3.03;;;1.40;;
26303;SDS011;70693;48.680;8.890;2023-12-28T10:48:12;1.95;;;1.10;;
26303;SDS011;70693;48.680;8.890;2023-12-28T10:50:57;2.15;;;1.30;;
26303;SDS011;70693;48.680;8.890;2023-12-28T11:01:31;2.85;;;1.40;;
26303;SDS011;70693;48.680;8.890;2023-12-28T11:04:01;1.20;;;1.00;;
26303;SDS011;70693;48.680;8.890;2023-12-28T11:06:33;2.78;;;1.15;;
26303;SDS011;70693;48.680;8.890;2023-12-28T11:09:01;2.53;;;1.05;;
26303;SDS011;70693;48.680;8.890;2023-12-28T11:11:28;1.67;;;1.08;;
26303;SDS011;70693;48.680;8.890;2023-12-28T11:13:55;2.03;;;1.00;;
26303;SDS011;70693;48.680;8.890;2023-12-28T11:16:22;2.75;;;1.50;;
26303;SDS011;70693;48.680;8.890;2023-12-28T11:18:48;2.22;;;1.30;;
26303;SDS011;70693;48.680;8.890;2023-12-28T11:21:15;1.83;;;1.20;;
26303;SDS011;70693;48.680;8.890;2023-12-28T11:23:42;2.45;;;1.10;;
26303;SDS011;70693;48.680;8.890;2023-12-28T11:26:15;1.52;;;1.10;;
26303;SDS011;70693;48.680;8.890;2023-12-28T11:28:45;2.05;;;0.95;;
26303;SDS011;70693;48.680;8.890;2023-12-28T11:31:15;1.45;;;0.88;;
26303;SDS011;70693;48.680;8.890;2023-12-28T11:33:48;2.05;;;1.17;;
26303;SDS011;70693;48.680;8.890;2023-12-28T11:36:34;1.20;;;0.82;;
26303;SDS011;70693;48.680;8.890;2023-12-28T11:39:02;2.05;;;1.20;;
26303;SDS011;70693;48.680;8.890;2023-12-28T11:41:30;1.23;;;1.00;;
26303;SDS011;70693;48.680;8.890;2023-12-28T11:44:01;2.20;;;1.08;;
26303;SDS011;70693;48.680;8.890;2023-12-28T11:46:28;1.30;;;1.00;;
26303;SDS011;70693;48.680;8.890;2023-12-28T11:49:02;1.10;;;0.90;;
26303;SDS011;70693;48.680;8.890;2023-12-28T11:51:33;2.20;;;1.30;;
26303;SDS011;70693;48.680;8.890;2023-12-28T11:54:00;3.08;;;1.13;;
26303;SDS011;70693;48.680;8.890;2023-12-28T11:56:28;0.98;;;0.85;;
26303;SDS011;70693;48.680;8.890;2023-12-28T11:58:54;1.17;;;0.85;;
26303;SDS011;70693;48.680;8.890;2023-12-28T12:01:20;1.67;;;1.00;;
26303;SDS011;70693;48.680;8.890;2023-12-28T12:03:45;2.97;;;1.13;;
26303;SDS011;70693;48.680;8.890;2023-12-28T12:06:11;1.30;;;0.90;;
26303;SDS011;70693;48.680;8.890;2023-12-28T12:08:37;2.13;;;0.95;;
26303;SDS011;70693;48.680;8.890;2023-12-28T12:11:07;2.17;;;1.08;;
26303;SDS011;70693;48.680;8.890;2023-12-28T12:13:32;1.88;;;1.10;;
26303;SDS011;70693;48.680;8.890;2023-12-28T12:15:59;1.60;;;0.90;;
26303;SDS011;70693;48.680;8.890;2023-12-28T12:18:27;1.10;;;0.90;;
26303;SDS011;70693;48.680;8.890;2023-12-28T12:20:54;1.90;;;1.00;;
26303;SDS011;70693;48.680;8.890;2023-12-28T12:23:20;2.13;;;1.23;;
26303;SDS011;70693;48.680;8.890;2023-12-28T12:25:46;1.08;;;0.77;;
26303;SDS011;70693;48.680;8.890;2023-12-28T12:28:12;1.88;;;0.98;;
26303;SDS011;70693;48.680;8.890;2023-12-28T12:30:37;1.80;;;1.23;;
26303;SDS011;70693;48.680;8.890;2023-12-28T12:33:03;1.77;;;1.00;;
26303;SDS011;70693;48.680;8.890;2023-12-28T12:35:29;1.42;;;0.95;;
26303;SDS011;70693;48.680;8.890;2023-12-28T12:37:55;2.05;;;1.20;;
26303;SDS011;70693;48.680;8.890;2023-12-28T12:40:20;3.38;;;1.27;;
26303;SDS011;70693;48.680;8.890;2023-12-28T12:42:55;1.83;;;1.00;;
26303;SDS011;70693;48.680;8.890;2023-12-28T12:45:23;1.90;;;1.27;;
26303;SDS011;70693;48.680;8.890;2023-12-28T12:47:50;1.88;;;1.10;;
26303;SDS011;70693;48.680;8.890;2023-12-28T12:50:16;1.30;;;1.00;;
26303;SDS011;70693;48.680;8.890;2023-12-28T12:52:42;1.75;;;1.00;;
26303;SDS011;70693;48.680;8.890;2023-12-28T12:55:13;1.80;;;1.00;;
26303;SDS011;70693;48.680;8.890;2023-12-28T12:57:40;1.98;;;0.93;;
26303;SDS011;70693;48.680;8.890;2023-12-28T13:00:06;1.40;;;1.10;;
26303;SDS011;70693;48.680;8.890;2023-12-28T13:02:35;1.92;;;1.15;;
26303;SDS011;70693;48.680;8.890;2023-12-28T13:05:01;1.42;;;0.90;;
26303;SDS011;70693;48.680;8.890;2023-12-28T13:07:29;1.42;;;1.05;;
26303;SDS011;70693;48.680;8.890;2023-12-28T13:09:55;1.10;;;0.75;;
26303;SDS011;70693;48.680;8.890;2023-12-28T13:12:20;1.45;;;0.93;;
26303;SDS011;70693;48.680;8.890;2023-12-28T13:14:47;1.35;;;0.90;;
26303;SDS011;70693;48.680;8.890;2023-12-28T13:17:12;2.45;;;1.27;;
26303;SDS011;70693;48.680;8.890;2023-12-28T13:19:38;1.92;;;1.00;;
26303;SDS011;70693;48.680;8.890;2023-12-28T13:22:04;0.90;;;0.80;;
26303;SDS011;70693;48.680;8.890;2023-12-28T13:24:30;1.70;;;1.00;;
26303;SDS011;70693;48.680;8.890;2023-12-28T13:26:57;1.52;;;1.00;;
26303;SDS011;70693;48.680;8.890;2023-12-28T13:29:23;1.70;;;0.90;;
26303;SDS011;70693;48.680;8.890;2023-12-28T13:31:49;1.33;;;0.90;;
26303;SDS011;70693;48.680;8.890;2023-12-28T13:34:15;1.42;;;0.98;;
26303;SDS011;70693;48.680;8.890;2023-12-28T13:36:41;1.40;;;1.00;;
26303;SDS011;70693;48.680;8.890;2023-12-28T13:39:07;2.75;;;1.30;;
26303;SDS011;70693;48.680;8.890;2023-12-28T13:41:36;2.53;;;1.27;;
26303;SDS011;70693;48.680;8.890;2023-12-28T13:44:02;8.02;;;3.88;;
26303;SDS011;70693;48.680;8.890;2023-12-28T13:46:29;45.30;;;19.75;;
26303;SDS011;70693;48.680;8.890;2023-12-28T13:48:56;66.03;;;27.88;;
26303;SDS011;70693;48.680;8.890;2023-12-28T13:51:22;77.07;;;33.22;;
26303;SDS011;70693;48.680;8.890;2023-12-28T13:53:48;83.28;;;34.85;;
26303;SDS011;70693;48.680;8.890;2023-12-28T13:56:13;74.55;;;33.90;;
26303;SDS011;70693;48.680;8.890;2023-12-28T13:58:40;73.60;;;33.30;;
26303;SDS011;70693;48.680;8.890;2023-12-28T14:01:05;72.53;;;33.25;;
26303;SDS011;70693;48.680;8.890;2023-12-28T14:03:32;70.05;;;32.45;;
26303;SDS011;70693;48.680;8.890;2023-12-28T14:05:57;69.78;;;32.17;;
26303;SDS011;70693;48.680;8.890;2023-12-28T14:08:23;73.03;;;31.42;;
26303;SDS011;70693;48.680;8.890;2023-12-28T14:10:48;65.35;;;30.52;;
26303;SDS011;70693;48.680;8.890;2023-12-28T14:13:14;64.47;;;30.30;;
26303;SDS011;70693;48.680;8.890;2023-12-28T14:15:40;68.82;;;30.33;;
26303;SDS011;70693;48.680;8.890;2023-12-28T14:18:05;59.05;;;28.58;;
26303;SDS011;70693;48.680;8.890;2023-12-28T14:20:32;60.03;;;28.80;;
26303;SDS011;70693;48.680;8.890;2023-12-28T14:22:57;63.53;;;30.08;;
26303;SDS011;70693;48.680;8.890;2023-12-28T14:25:23;59.88;;;28.70;;
26303;SDS011;70693;48.680;8.890;2023-12-28T14:27:50;60.97;;;28.45;;
26303;SDS011;70693;48.680;8.890;2023-12-28T14:30:16;60.08;;;27.65;;
26303;SDS011;70693;48.680;8.890;2023-12-28T14:32:43;62.42;;;28.85;;
26303;SDS011;70693;48.680;8.890;2023-12-28T14:35:09;59.38;;;28.52;;
26303;SDS011;70693;48.680;8.890;2023-12-28T14:37:35;58.30;;;27.48;;
26303;SDS011;70693;48.680;8.890;2023-12-28T14:40:01;52.85;;;25.83;;
26303;SDS011;70693;48.680;8.890;2023-12-28T14:42:32;55.50;;;27.15;;
26303;SDS011;70693;48.680;8.890;2023-12-28T14:44:58;52.00;;;26.20;;
26303;SDS011;70693;48.680;8.890;2023-12-28T14:47:25;53.67;;;25.25;;
26303;SDS011;70693;48.680;8.890;2023-12-28T14:49:51;51.17;;;25.40;;
26303;SDS011;70693;48.680;8.890;2023-12-28T14:52:19;52.63;;;24.65;;